Lewistown, MT

6:56 AM MDT on September 22, 2014 (GMT -0600)
Malmstrom AFB | Change Station
CLOSE
Current Station
Airport
Location: Malmstrom AFB,
Elevation: 3527 ft
Nearby Weather Stations

Elev 3527 ft 47.50 °N, 111.19 °W | Updated 1 hour ago

Partly Cloudy
Partly Cloudy
51 °F
Feels Like 51 °F
N
4
Wind Variable Wind from North

Today
High -- | Low -- °F
--% Chance of Precip.
Yesterday
High -- | Low -- °F
Precip. -- in
7:04 AM 7:15 PM
Waning Crescent, 3% visible
Pressure 29.93 in
Visibility 10.0 miles
Clouds Clear
Dew Point 44 °F
Humidity 77%
Rainfall 0.00 in
Snow Depth 0 in , 0 in , 0 in
UV 0 out of 12
Pollen 7.00 out of 12
Air Quality Not available.
Flu Activity Not available.
METAR KGFA 221156Z AUTO 35003KT 10SM CLR 10/07 A2995 RMK AO2 SLP133 T01040066 10155 20090 56007

More Conditions Fewer Conditions

Pressure 29.93 in
Visibility 10.0 miles
Clouds Clear
Dew Point 44 °F
Humidity 77%
Rainfall 0.00 in
Snow Depth 0 in , 0 in , 0 in
UV 0 out of 12
Pollen 7.00 out of 12
Air Quality Not available.
Flu Activity Not available.
METAR KGFA 221156Z AUTO 35003KT 10SM CLR 10/07 A2995 RMK AO2 SLP133 T01040066 10155 20090 56007

More Conditions Fewer Conditions

10-Day Weather Forecast

Almanac

Astronomy

Sep. 22, 2014 Rise Set
Actual Time 7:04 AM MDT 7:15 PM MDT
Civil Twilight 6:34 AM MDT 7:45 PM MDT
Nautical Twilight 5:58 AM MDT 8:21 PM MDT
Astronomical Twilight 5:21 AM MDT 8:58 PM MDT
Moon 5:32 AM MDT 6:26 PM MDT
Length of Visible Light 13h 11m
Length of Day
12h 10m
Tomorrow will be 3m 20s shorter.
Waning Crescent, 3% of the Moon is Illuminated
Today
Waning Crescent
Sep 24
New
Oct 1
First Quarter
Oct 8
Full
Oct 15
Last Quarter

Today's Extremes

State Highs State Lows

Community

WunderPhotos

Upload Photos

1,755,419 photos uploaded!

Nearby

Snow Depth

Station Depth Elevation
Badger Pass 0 in 6900 ft
Monument Peak 0 in 8850 ft
Stringer Creek 0 in 6550 ft
Twelvemile Creek 0 in 5600 ft
Hoodoo Basin 0 in 6050 ft

Earthquake Activity

City Distance Mag. Time & Date
No recent earthquake activity has been reported nearby.
Minimum magnitude displayed is 2.5.

Coastal Water Temperatures

Place Temperature
No Stations Reporting

Nearby Weather Stations